sensor_id;sensor_type;location;lat;lon;timestamp;temperature;humidity
8611;DHT22;4343;53.648;10.098;2022-08-16T00:00:10;22.90;99.90
8611;DHT22;4343;53.648;10.098;2022-08-16T00:02:36;22.80;99.90
8611;DHT22;4343;53.648;10.098;2022-08-16T00:05:05;22.80;99.90
8611;DHT22;4343;53.648;10.098;2022-08-16T00:07:31;22.80;99.90
8611;DHT22;4343;53.648;10.098;2022-08-16T00:09:57;22.80;99.90
8611;DHT22;4343;53.648;10.098;2022-08-16T00:12:28;22.80;99.90
8611;DHT22;4343;53.648;10.098;2022-08-16T00:14:54;22.80;99.90
8611;DHT22;4343;53.648;10.098;2022-08-16T00:17:20;22.70;99.90
8611;DHT22;4343;53.648;10.098;2022-08-16T00:19:46;22.70;99.90
8611;DHT22;4343;53.648;10.098;2022-08-16T00:22:12;22.70;99.90
8611;DHT22;4343;53.648;10.098;2022-08-16T00:24:37;22.70;99.90
8611;DHT22;4343;53.648;10.098;2022-08-16T00:27:03;22.70;99.90
8611;DHT22;4343;53.648;10.098;2022-08-16T00:29:30;22.70;99.90
8611;DHT22;4343;53.648;10.098;2022-08-16T00:31:57;22.70;99.90
8611;DHT22;4343;53.648;10.098;2022-08-16T00:34:23;22.70;99.90
8611;DHT22;4343;53.648;10.098;2022-08-16T00:36:49;22.60;99.90
8611;DHT22;4343;53.648;10.098;2022-08-16T00:39:16;22.70;99.90
8611;DHT22;4343;53.648;10.098;2022-08-16T00:41:44;22.60;99.90
8611;DHT22;4343;53.648;10.098;2022-08-16T00:44:10;22.70;99.90
8611;DHT22;4343;53.648;10.098;2022-08-16T00:46:40;22.70;99.90
8611;DHT22;4343;53.648;10.098;2022-08-16T00:49:11;22.60;99.90
8611;DHT22;4343;53.648;10.098;2022-08-16T00:51:38;22.60;99.90
8611;DHT22;4343;53.648;10.098;2022-08-16T00:54:03;22.60;99.90
8611;DHT22;4343;53.648;10.098;2022-08-16T00:56:32;22.60;99.90
8611;DHT22;4343;53.648;10.098;2022-08-16T00:58:59;22.60;99.90
8611;DHT22;4343;53.648;10.098;2022-08-16T01:01:26;22.60;99.90
8611;DHT22;4343;53.648;10.098;2022-08-16T01:03:52;22.50;99.90
8611;DHT22;4343;53.648;10.098;2022-08-16T01:06:19;22.50;99.90
8611;DHT22;4343;53.648;10.098;2022-08-16T01:08:48;22.50;99.90
8611;DHT22;4343;53.648;10.098;2022-08-16T01:11:15;22.50;99.90
8611;DHT22;4343;53.648;10.098;2022-08-16T01:13:42;22.50;99.90
8611;DHT22;4343;53.648;10.098;2022-08-16T01:16:13;22.50;99.90
8611;DHT22;4343;53.648;10.098;2022-08-16T01:18:47;22.50;99.90
8611;DHT22;4343;53.648;10.098;2022-08-16T01:21:31;22.40;99.90
8611;DHT22;4343;53.648;10.098;2022-08-16T01:24:17;22.40;99.90
8611;DHT22;4343;53.648;10.098;2022-08-16T01:26:44;22.40;99.90
8611;DHT22;4343;53.648;10.098;2022-08-16T01:29:15;22.40;99.90
8611;DHT22;4343;53.648;10.098;2022-08-16T01:31:42;22.30;99.90
8611;DHT22;4343;53.648;10.098;2022-08-16T01:34:08;22.30;99.90
8611;DHT22;4343;53.648;10.098;2022-08-16T01:36:35;22.30;99.90
8611;DHT22;4343;53.648;10.098;2022-08-16T01:39:13;22.20;99.90
8611;DHT22;4343;53.648;10.098;2022-08-16T01:41:40;22.30;99.90
8611;DHT22;4343;53.648;10.098;2022-08-16T01:44:05;22.30;99.90
8611;DHT22;4343;53.648;10.098;2022-08-16T01:46:35;22.30;99.90
8611;DHT22;4343;53.648;10.098;2022-08-16T01:49:09;22.30;99.90
8611;DHT22;4343;53.648;10.098;2022-08-16T01:51:35;22.20;99.90
8611;DHT22;4343;53.648;10.098;2022-08-16T01:54:02;22.20;99.90
8611;DHT22;4343;53.648;10.098;2022-08-16T01:56:28;22.20;99.90
8611;DHT22;4343;53.648;10.098;2022-08-16T01:58:55;22.20;99.90
8611;DHT22;4343;53.648;10.098;2022-08-16T02:01:22;22.20;99.90
8611;DHT22;4343;53.648;10.098;2022-08-16T02:03:48;22.20;99.90
8611;DHT22;4343;53.648;10.098;2022-08-16T02:06:14;22.20;99.90
8611;DHT22;4343;53.648;10.098;2022-08-16T02:08:39;22.10;99.90
8611;DHT22;4343;53.648;10.098;2022-08-16T02:11:06;22.10;99.90
8611;DHT22;4343;53.648;10.098;2022-08-16T02:13:36;22.10;99.90
8611;DHT22;4343;53.648;10.098;2022-08-16T02:16:05;22.00;99.90
8611;DHT22;4343;53.648;10.098;2022-08-16T02:18:31;22.00;99.90
8611;DHT22;4343;53.648;10.098;2022-08-16T02:20:56;22.00;99.90
8611;DHT22;4343;53.648;10.098;2022-08-16T02:23:22;22.00;99.90
8611;DHT22;4343;53.648;10.098;2022-08-16T02:25:47;21.90;99.90
8611;DHT22;4343;53.648;10.098;2022-08-16T02:28:14;21.90;99.90
8611;DHT22;4343;53.648;10.098;2022-08-16T02:30:40;21.90;99.90
8611;DHT22;4343;53.648;10.098;2022-08-16T02:33:06;21.90;99.90
8611;DHT22;4343;53.648;10.098;2022-08-16T02:35:32;21.90;99.90
8611;DHT22;4343;53.648;10.098;2022-08-16T02:37:59;21.80;99.90
8611;DHT22;4343;53.648;10.098;2022-08-16T02:40:25;21.80;99.90
8611;DHT22;4343;53.648;10.098;2022-08-16T02:42:52;21.80;99.90
8611;DHT22;4343;53.648;10.098;2022-08-16T02:45:21;21.80;99.90
8611;DHT22;4343;53.648;10.098;2022-08-16T02:47:47;21.80;99.90
8611;DHT22;4343;53.648;10.098;2022-08-16T02:50:13;21.70;99.90
8611;DHT22;4343;53.648;10.098;2022-08-16T02:52:38;21.70;99.90
8611;DHT22;4343;53.648;10.098;2022-08-16T02:55:05;21.70;99.90
8611;DHT22;4343;53.648;10.098;2022-08-16T02:57:30;21.60;99.90
8611;DHT22;4343;53.648;10.098;2022-08-16T02:59:56;21.60;99.90
8611;DHT22;4343;53.648;10.098;2022-08-16T03:02:22;21.70;99.90
8611;DHT22;4343;53.648;10.098;2022-08-16T03:04:48;21.60;99.90
8611;DHT22;4343;53.648;10.098;2022-08-16T03:07:14;21.60;99.90
8611;DHT22;4343;53.648;10.098;2022-08-16T03:09:39;21.60;99.90
8611;DHT22;4343;53.648;10.098;2022-08-16T03:12:06;21.60;99.90
8611;DHT22;4343;53.648;10.098;2022-08-16T03:14:32;21.60;99.90
8611;DHT22;4343;53.648;10.098;2022-08-16T03:16:58;21.60;99.90
8611;DHT22;4343;53.648;10.098;2022-08-16T03:19:24;21.50;99.90
8611;DHT22;4343;53.648;10.098;2022-08-16T03:21:49;21.60;99.90
8611;DHT22;4343;53.648;10.098;2022-08-16T03:24:15;21.50;99.90
8611;DHT22;4343;53.648;10.098;2022-08-16T03:26:41;21.50;99.90
8611;DHT22;4343;53.648;10.098;2022-08-16T03:29:06;21.50;99.90
8611;DHT22;4343;53.648;10.098;2022-08-16T03:31:32;21.50;99.90
8611;DHT22;4343;53.648;10.098;2022-08-16T03:33:57;21.40;99.90
8611;DHT22;4343;53.648;10.098;2022-08-16T03:36:23;21.40;99.90
8611;DHT22;4343;53.648;10.098;2022-08-16T03:38:48;21.30;99.90
8611;DHT22;4343;53.648;10.098;2022-08-16T03:41:14;21.30;99.90
8611;DHT22;4343;53.648;10.098;2022-08-16T03:43:40;21.30;99.90
8611;DHT22;4343;53.648;10.098;2022-08-16T03:46:06;21.20;99.90
8611;DHT22;4343;53.648;10.098;2022-08-16T03:48:34;21.30;99.90
8611;DHT22;4343;53.648;10.098;2022-08-16T03:51:01;21.20;99.90
8611;DHT22;4343;53.648;10.098;2022-08-16T03:53:28;21.20;99.90
8611;DHT22;4343;53.648;10.098;2022-08-16T03:55:54;21.20;99.90
8611;DHT22;4343;53.648;10.098;2022-08-16T03:58:20;21.20;99.90
8611;DHT22;4343;53.648;10.098;2022-08-16T04:00:45;21.10;99.90
8611;DHT22;4343;53.648;10.098;2022-08-16T04:03:13;21.10;99.90
8611;DHT22;4343;53.648;10.098;2022-08-16T04:05:42;21.10;99.90
8611;DHT22;4343;53.648;10.098;2022-08-16T04:08:10;21.10;99.90
8611;DHT22;4343;53.648;10.098;2022-08-16T04:10:36;21.10;99.90
8611;DHT22;4343;53.648;10.098;2022-08-16T04:13:01;21.10;99.90
8611;DHT22;4343;53.648;10.098;2022-08-16T04:15:27;21.00;99.90
8611;DHT22;4343;53.648;10.098;2022-08-16T04:17:53;21.10;99.90
8611;DHT22;4343;53.648;10.098;2022-08-16T04:20:19;21.10;99.90
8611;DHT22;4343;53.648;10.098;2022-08-16T04:22:45;21.10;99.90
8611;DHT22;4343;53.648;10.098;2022-08-16T04:25:11;21.00;99.90
8611;DHT22;4343;53.648;10.098;2022-08-16T04:27:38;21.10;99.90
8611;DHT22;4343;53.648;10.098;2022-08-16T04:30:07;21.10;99.90
8611;DHT22;4343;53.648;10.098;2022-08-16T04:32:33;21.00;99.90
8611;DHT22;4343;53.648;10.098;2022-08-16T04:34:59;21.10;99.90
8611;DHT22;4343;53.648;10.098;2022-08-16T04:37:24;21.00;99.90
8611;DHT22;4343;53.648;10.098;2022-08-16T04:39:50;21.00;99.90
8611;DHT22;4343;53.648;10.098;2022-08-16T04:42:16;21.10;99.90
8611;DHT22;4343;53.648;10.098;2022-08-16T04:44:44;21.10;99.90
8611;DHT22;4343;53.648;10.098;2022-08-16T04:47:10;21.00;99.90
8611;DHT22;4343;53.648;10.098;2022-08-16T04:49:35;21.10;99.90
8611;DHT22;4343;53.648;10.098;2022-08-16T04:52:01;21.00;99.90
8611;DHT22;4343;53.648;10.098;2022-08-16T04:54:26;21.10;99.90
8611;DHT22;4343;53.648;10.098;2022-08-16T04:56:52;21.10;99.90
8611;DHT22;4343;53.648;10.098;2022-08-16T04:59:17;21.00;99.90
8611;DHT22;4343;53.648;10.098;2022-08-16T05:01:43;21.10;99.90
8611;DHT22;4343;53.648;10.098;2022-08-16T05:04:09;21.10;99.90
8611;DHT22;4343;53.648;10.098;2022-08-16T05:06:34;21.10;99.90
8611;DHT22;4343;53.648;10.098;2022-08-16T05:09:00;21.10;99.90
8611;DHT22;4343;53.648;10.098;2022-08-16T05:11:26;21.10;99.90
8611;DHT22;4343;53.648;10.098;2022-08-16T05:13:53;21.10;99.90
8611;DHT22;4343;53.648;10.098;2022-08-16T05:16:25;21.10;99.90
8611;DHT22;4343;53.648;10.098;2022-08-16T05:18:53;21.20;99.90
8611;DHT22;4343;53.648;10.098;2022-08-16T05:21:20;21.20;99.90
8611;DHT22;4343;53.648;10.098;2022-08-16T05:23:46;21.20;99.90
8611;DHT22;4343;53.648;10.098;2022-08-16T05:26:12;21.20;99.90
8611;DHT22;4343;53.648;10.098;2022-08-16T05:28:37;21.20;99.90
8611;DHT22;4343;53.648;10.098;2022-08-16T05:31:03;21.20;99.90
8611;DHT22;4343;53.648;10.098;2022-08-16T05:33:28;21.20;99.90
8611;DHT22;4343;53.648;10.098;2022-08-16T05:35:54;21.20;99.90
8611;DHT22;4343;53.648;10.098;2022-08-16T05:38:20;21.30;99.90
8611;DHT22;4343;53.648;10.098;2022-08-16T05:40:53;21.30;99.90
8611;DHT22;4343;53.648;10.098;2022-08-16T05:43:18;21.30;99.90
8611;DHT22;4343;53.648;10.098;2022-08-16T05:45:44;21.30;99.90
8611;DHT22;4343;53.648;10.098;2022-08-16T05:48:09;21.30;99.90
8611;DHT22;4343;53.648;10.098;2022-08-16T05:50:35;21.40;99.90
8611;DHT22;4343;53.648;10.098;2022-08-16T05:53:00;21.40;99.90
8611;DHT22;4343;53.648;10.098;2022-08-16T05:55:26;21.40;99.90
8611;DHT22;4343;53.648;10.098;2022-08-16T05:57:51;21.50;99.90
8611;DHT22;4343;53.648;10.098;2022-08-16T06:00:17;21.50;99.90
8611;DHT22;4343;53.648;10.098;2022-08-16T06:02:43;21.50;99.90
8611;DHT22;4343;53.648;10.098;2022-08-16T06:05:09;21.50;99.90
8611;DHT22;4343;53.648;10.098;2022-08-16T06:07:35;21.50;99.90
8611;DHT22;4343;53.648;10.098;2022-08-16T06:10:00;21.50;99.90
8611;DHT22;4343;53.648;10.098;2022-08-16T06:12:28;21.60;99.90
8611;DHT22;4343;53.648;10.098;2022-08-16T06:14:57;21.60;99.90
8611;DHT22;4343;53.648;10.098;2022-08-16T06:17:24;21.60;99.90
8611;DHT22;4343;53.648;10.098;2022-08-16T06:19:50;21.70;99.90
8611;DHT22;4343;53.648;10.098;2022-08-16T06:22:15;21.70;99.90
8611;DHT22;4343;53.648;10.098;2022-08-16T06:24:41;21.70;99.90
8611;DHT22;4343;53.648;10.098;2022-08-16T06:27:08;21.70;99.90
8611;DHT22;4343;53.648;10.098;2022-08-16T06:29:34;21.80;99.90
8611;DHT22;4343;53.648;10.098;2022-08-16T06:31:59;21.80;99.90
8611;DHT22;4343;53.648;10.098;2022-08-16T06:34:25;21.80;99.90
8611;DHT22;4343;53.648;10.098;2022-08-16T06:36:50;21.90;99.90
8611;DHT22;4343;53.648;10.098;2022-08-16T06:39:16;21.90;99.90
8611;DHT22;4343;53.648;10.098;2022-08-16T06:41:42;22.00;99.90
8611;DHT22;4343;53.648;10.098;2022-08-16T06:44:07;22.00;99.90
8611;DHT22;4343;53.648;10.098;2022-08-16T06:46:35;22.10;99.90
8611;DHT22;4343;53.648;10.098;2022-08-16T06:49:04;22.10;99.90
8611;DHT22;4343;53.648;10.098;2022-08-16T06:51:30;22.20;99.90
8611;DHT22;4343;53.648;10.098;2022-08-16T06:53:55;22.20;99.90
8611;DHT22;4343;53.648;10.098;2022-08-16T06:56:21;22.20;99.90
8611;DHT22;4343;53.648;10.098;2022-08-16T06:58:46;22.40;99.90
8611;DHT22;4343;53.648;10.098;2022-08-16T07:01:12;22.40;99.90
8611;DHT22;4343;53.648;10.098;2022-08-16T07:03:38;22.40;99.90
8611;DHT22;4343;53.648;10.098;2022-08-16T07:06:04;22.50;99.90
8611;DHT22;4343;53.648;10.098;2022-08-16T07:08:29;22.60;99.90
8611;DHT22;4343;53.648;10.098;2022-08-16T07:10:56;22.70;99.90
8611;DHT22;4343;53.648;10.098;2022-08-16T07:13:23;22.80;99.90
8611;DHT22;4343;53.648;10.098;2022-08-16T07:15:49;22.90;99.90
8611;DHT22;4343;53.648;10.098;2022-08-16T07:18:16;23.00;99.90
8611;DHT22;4343;53.648;10.098;2022-08-16T07:20:44;23.10;99.90
8611;DHT22;4343;53.648;10.098;2022-08-16T07:23:10;23.20;99.90
8611;DHT22;4343;53.648;10.098;2022-08-16T07:25:35;23.30;99.90
8611;DHT22;4343;53.648;10.098;2022-08-16T07:28:02;23.40;99.90
8611;DHT22;4343;53.648;10.098;2022-08-16T07:30:28;23.50;99.90
8611;DHT22;4343;53.648;10.098;2022-08-16T07:32:54;23.60;99.90
8611;DHT22;4343;53.648;10.098;2022-08-16T07:35:20;23.70;99.90
8611;DHT22;4343;53.648;10.098;2022-08-16T07:37:46;23.80;99.90
8611;DHT22;4343;53.648;10.098;2022-08-16T07:40:12;23.90;99.90
8611;DHT22;4343;53.648;10.098;2022-08-16T07:42:38;24.10;99.90
8611;DHT22;4343;53.648;10.098;2022-08-16T07:45:05;24.20;99.90
8611;DHT22;4343;53.648;10.098;2022-08-16T07:47:30;24.30;99.90
8611;DHT22;4343;53.648;10.098;2022-08-16T07:49:56;24.40;99.90
8611;DHT22;4343;53.648;10.098;2022-08-16T07:52:22;24.60;99.90
8611;DHT22;4343;53.648;10.098;2022-08-16T07:54:47;24.80;99.90
8611;DHT22;4343;53.648;10.098;2022-08-16T07:57:13;25.00;99.90
8611;DHT22;4343;53.648;10.098;2022-08-16T07:59:38;25.20;99.90
8611;DHT22;4343;53.648;10.098;2022-08-16T08:02:04;25.40;99.90
8611;DHT22;4343;53.648;10.098;2022-08-16T08:04:30;25.60;99.90
8611;DHT22;4343;53.648;10.098;2022-08-16T08:06:58;25.80;99.90
8611;DHT22;4343;53.648;10.098;2022-08-16T08:09:24;26.00;99.90
8611;DHT22;4343;53.648;10.098;2022-08-16T08:11:49;26.20;99.90
8611;DHT22;4343;53.648;10.098;2022-08-16T08:14:15;26.40;99.90
8611;DHT22;4343;53.648;10.098;2022-08-16T08:16:41;26.60;99.90
8611;DHT22;4343;53.648;10.098;2022-08-16T08:19:07;26.80;99.90
8611;DHT22;4343;53.648;10.098;2022-08-16T08:21:37;27.00;99.90
8611;DHT22;4343;53.648;10.098;2022-08-16T08:24:03;27.10;99.90
8611;DHT22;4343;53.648;10.098;2022-08-16T08:26:29;27.40;99.90
8611;DHT22;4343;53.648;10.098;2022-08-16T08:28:55;27.50;99.90
8611;DHT22;4343;53.648;10.098;2022-08-16T08:31:20;27.60;99.90
8611;DHT22;4343;53.648;10.098;2022-08-16T08:33:46;27.70;99.90
8611;DHT22;4343;53.648;10.098;2022-08-16T08:36:14;27.80;99.90
8611;DHT22;4343;53.648;10.098;2022-08-16T08:38:41;27.90;99.90
8611;DHT22;4343;53.648;10.098;2022-08-16T08:41:08;28.00;99.90
8611;DHT22;4343;53.648;10.098;2022-08-16T08:43:34;28.10;99.90
8611;DHT22;4343;53.648;10.098;2022-08-16T08:46:00;28.20;99.90
8611;DHT22;4343;53.648;10.098;2022-08-16T08:48:26;28.20;99.00
8611;DHT22;4343;53.648;10.098;2022-08-16T08:50:51;28.30;99.10
8611;DHT22;4343;53.648;10.098;2022-08-16T08:53:17;28.40;98.90
8611;DHT22;4343;53.648;10.098;2022-08-16T08:55:43;28.40;98.70
8611;DHT22;4343;53.648;10.098;2022-08-16T08:58:08;28.50;98.40
8611;DHT22;4343;53.648;10.098;2022-08-16T09:00:34;28.50;98.40
8611;DHT22;4343;53.648;10.098;2022-08-16T09:03:01;28.50;98.10
8611;DHT22;4343;53.648;10.098;2022-08-16T09:05:27;28.50;97.80
8611;DHT22;4343;53.648;10.098;2022-08-16T09:07:53;28.50;97.80
8611;DHT22;4343;53.648;10.098;2022-08-16T09:10:20;28.50;98.00
8611;DHT22;4343;53.648;10.098;2022-08-16T09:12:46;28.50;98.00
8611;DHT22;4343;53.648;10.098;2022-08-16T09:15:13;28.50;98.10
8611;DHT22;4343;53.648;10.098;2022-08-16T09:17:39;28.60;98.00
8611;DHT22;4343;53.648;10.098;2022-08-16T09:20:07;28.60;97.90
8611;DHT22;4343;53.648;10.098;2022-08-16T09:22:35;28.70;97.80
8611;DHT22;4343;53.648;10.098;2022-08-16T09:25:00;28.80;97.60
8611;DHT22;4343;53.648;10.098;2022-08-16T09:27:26;28.80;97.40
8611;DHT22;4343;53.648;10.098;2022-08-16T09:29:52;28.80;97.50
8611;DHT22;4343;53.648;10.098;2022-08-16T09:32:18;28.90;97.60
8611;DHT22;4343;53.648;10.098;2022-08-16T09:34:44;29.00;97.70
8611;DHT22;4343;53.648;10.098;2022-08-16T09:37:10;29.00;97.30
8611;DHT22;4343;53.648;10.098;2022-08-16T09:39:37;29.10;97.20
8611;DHT22;4343;53.648;10.098;2022-08-16T09:42:03;29.20;96.90
8611;DHT22;4343;53.648;10.098;2022-08-16T09:44:29;29.20;97.00
8611;DHT22;4343;53.648;10.098;2022-08-16T09:46:55;29.30;97.00
8611;DHT22;4343;53.648;10.098;2022-08-16T09:49:21;29.40;96.80
8611;DHT22;4343;53.648;10.098;2022-08-16T09:51:48;29.40;96.70
8611;DHT22;4343;53.648;10.098;2022-08-16T09:54:24;29.50;96.80
8611;DHT22;4343;53.648;10.098;2022-08-16T09:56:50;29.60;96.90
8611;DHT22;4343;53.648;10.098;2022-08-16T09:59:17;29.60;96.20
8611;DHT22;4343;53.648;10.098;2022-08-16T10:01:43;29.70;96.10
8611;DHT22;4343;53.648;10.098;2022-08-16T10:04:10;29.80;95.80
8611;DHT22;4343;53.648;10.098;2022-08-16T10:06:36;29.90;95.90
8611;DHT22;4343;53.648;10.098;2022-08-16T10:09:05;29.90;95.80
8611;DHT22;4343;53.648;10.098;2022-08-16T10:11:30;30.00;95.60
8611;DHT22;4343;53.648;10.098;2022-08-16T10:14:15;30.00;95.90
8611;DHT22;4343;53.648;10.098;2022-08-16T10:16:41;30.10;95.70
8611;DHT22;4343;53.648;10.098;2022-08-16T10:19:10;30.30;95.10
8611;DHT22;4343;53.648;10.098;2022-08-16T10:21:37;30.30;94.00
8611;DHT22;4343;53.648;10.098;2022-08-16T10:24:03;30.40;93.60
8611;DHT22;4343;53.648;10.098;2022-08-16T10:26:28;30.50;93.40
8611;DHT22;4343;53.648;10.098;2022-08-16T10:28:55;30.50;93.40
8611;DHT22;4343;53.648;10.098;2022-08-16T10:31:20;30.60;93.50
8611;DHT22;4343;53.648;10.098;2022-08-16T10:33:46;30.70;93.30
8611;DHT22;4343;53.648;10.098;2022-08-16T10:36:12;30.90;93.10
8611;DHT22;4343;53.648;10.098;2022-08-16T10:38:39;31.00;92.30
8611;DHT22;4343;53.648;10.098;2022-08-16T10:41:05;30.90;92.30
8611;DHT22;4343;53.648;10.098;2022-08-16T10:43:32;31.00;92.20
8611;DHT22;4343;53.648;10.098;2022-08-16T10:45:57;31.10;91.20
8611;DHT22;4343;53.648;10.098;2022-08-16T10:48:23;31.10;90.70
8611;DHT22;4343;53.648;10.098;2022-08-16T10:50:48;31.00;91.00
8611;DHT22;4343;53.648;10.098;2022-08-16T10:53:14;30.90;91.40
8611;DHT22;4343;53.648;10.098;2022-08-16T10:55:42;30.90;91.80
8611;DHT22;4343;53.648;10.098;2022-08-16T10:58:11;30.80;92.20
8611;DHT22;4343;53.648;10.098;2022-08-16T11:00:39;30.90;92.70
8611;DHT22;4343;53.648;10.098;2022-08-16T11:03:05;30.90;92.70
8611;DHT22;4343;53.648;10.098;2022-08-16T11:05:33;31.10;92.00
8611;DHT22;4343;53.648;10.098;2022-08-16T11:08:00;31.20;92.00
8611;DHT22;4343;53.648;10.098;2022-08-16T11:10:31;31.40;92.10
8611;DHT22;4343;53.648;10.098;2022-08-16T11:12:58;31.50;92.00
8611;DHT22;4343;53.648;10.098;2022-08-16T11:15:24;31.50;91.90
8611;DHT22;4343;53.648;10.098;2022-08-16T11:17:51;31.60;91.90
8611;DHT22;4343;53.648;10.098;2022-08-16T11:20:17;31.70;92.50
8611;DHT22;4343;53.648;10.098;2022-08-16T11:22:44;31.80;92.20
8611;DHT22;4343;53.648;10.098;2022-08-16T11:25:13;31.80;92.00
8611;DHT22;4343;53.648;10.098;2022-08-16T11:27:39;31.80;92.10
8611;DHT22;4343;53.648;10.098;2022-08-16T11:30:07;31.80;92.10
8611;DHT22;4343;53.648;10.098;2022-08-16T11:32:33;31.70;92.20
8611;DHT22;4343;53.648;10.098;2022-08-16T11:35:08;31.60;92.20
8611;DHT22;4343;53.648;10.098;2022-08-16T11:37:35;31.50;92.30
8611;DHT22;4343;53.648;10.098;2022-08-16T11:40:03;31.40;92.40
8611;DHT22;4343;53.648;10.098;2022-08-16T11:42:29;31.30;92.60
8611;DHT22;4343;53.648;10.098;2022-08-16T11:44:55;31.10;92.50
8611;DHT22;4343;53.648;10.098;2022-08-16T11:47:20;31.00;92.40
8611;DHT22;4343;53.648;10.098;2022-08-16T11:49:46;30.80;92.50
8611;DHT22;4343;53.648;10.098;2022-08-16T11:52:11;30.60;92.70
8611;DHT22;4343;53.648;10.098;2022-08-16T11:54:37;30.50;92.90
8611;DHT22;4343;53.648;10.098;2022-08-16T11:57:04;30.30;93.30
8611;DHT22;4343;53.648;10.098;2022-08-16T11:59:29;30.10;93.50
8611;DHT22;4343;53.648;10.098;2022-08-16T12:01:56;30.00;93.70
8611;DHT22;4343;53.648;10.098;2022-08-16T12:04:23;29.90;93.90
8611;DHT22;4343;53.648;10.098;2022-08-16T12:06:49;29.80;94.00
8611;DHT22;4343;53.648;10.098;2022-08-16T12:09:14;29.70;93.80
8611;DHT22;4343;53.648;10.098;2022-08-16T12:11:40;29.70;93.70
8611;DHT22;4343;53.648;10.098;2022-08-16T12:14:06;29.60;93.90
8611;DHT22;4343;53.648;10.098;2022-08-16T12:16:33;29.50;94.10
8611;DHT22;4343;53.648;10.098;2022-08-16T12:19:00;29.40;94.10
8611;DHT22;4343;53.648;10.098;2022-08-16T12:21:26;29.30;94.20
8611;DHT22;4343;53.648;10.098;2022-08-16T12:23:52;29.20;94.00
8611;DHT22;4343;53.648;10.098;2022-08-16T12:26:18;29.10;94.10
8611;DHT22;4343;53.648;10.098;2022-08-16T12:28:43;29.00;94.30
8611;DHT22;4343;53.648;10.098;2022-08-16T12:31:09;29.00;95.30
8611;DHT22;4343;53.648;10.098;2022-08-16T12:33:35;28.90;96.20
8611;DHT22;4343;53.648;10.098;2022-08-16T12:36:01;28.80;97.10
8611;DHT22;4343;53.648;10.098;2022-08-16T12:38:26;28.70;97.30
8611;DHT22;4343;53.648;10.098;2022-08-16T12:40:52;28.70;97.50
8611;DHT22;4343;53.648;10.098;2022-08-16T12:43:18;28.60;97.70
8611;DHT22;4343;53.648;10.098;2022-08-16T12:45:50;28.60;97.90
8611;DHT22;4343;53.648;10.098;2022-08-16T12:48:19;28.50;97.90
8611;DHT22;4343;53.648;10.098;2022-08-16T12:51:07;28.50;97.90
8611;DHT22;4343;53.648;10.098;2022-08-16T12:53:33;28.40;98.00
8611;DHT22;4343;53.648;10.098;2022-08-16T12:56:01;28.40;98.00
8611;DHT22;4343;53.648;10.098;2022-08-16T12:58:27;28.40;98.10
8611;DHT22;4343;53.648;10.098;2022-08-16T13:00:52;28.50;98.00
8611;DHT22;4343;53.648;10.098;2022-08-16T13:03:18;28.40;97.90
8611;DHT22;4343;53.648;10.098;2022-08-16T13:05:44;28.50;98.10
8611;DHT22;4343;53.648;10.098;2022-08-16T13:08:13;28.60;98.10
8611;DHT22;4343;53.648;10.098;2022-08-16T13:10:40;28.80;98.10
8611;DHT22;4343;53.648;10.098;2022-08-16T13:13:08;29.10;97.80
8611;DHT22;4343;53.648;10.098;2022-08-16T13:15:34;29.30;97.10
8611;DHT22;4343;53.648;10.098;2022-08-16T13:18:00;29.50;96.20
8611;DHT22;4343;53.648;10.098;2022-08-16T13:20:26;29.80;95.80
8611;DHT22;4343;53.648;10.098;2022-08-16T13:23:06;30.00;94.40
8611;DHT22;4343;53.648;10.098;2022-08-16T13:25:35;30.20;94.00
8611;DHT22;4343;53.648;10.098;2022-08-16T13:28:02;30.40;93.70
8611;DHT22;4343;53.648;10.098;2022-08-16T13:30:30;30.60;93.50
8611;DHT22;4343;53.648;10.098;2022-08-16T13:32:56;30.80;93.20
8611;DHT22;4343;53.648;10.098;2022-08-16T13:35:24;30.90;93.00
8611;DHT22;4343;53.648;10.098;2022-08-16T13:37:50;31.10;93.20
8611;DHT22;4343;53.648;10.098;2022-08-16T13:40:16;31.40;92.60
8611;DHT22;4343;53.648;10.098;2022-08-16T13:42:42;31.50;92.20
8611;DHT22;4343;53.648;10.098;2022-08-16T13:45:10;31.60;91.70
8611;DHT22;4343;53.648;10.098;2022-08-16T13:47:36;31.70;91.80
8611;DHT22;4343;53.648;10.098;2022-08-16T13:50:02;31.90;92.10
8611;DHT22;4343;53.648;10.098;2022-08-16T13:52:29;32.10;91.80
8611;DHT22;4343;53.648;10.098;2022-08-16T13:54:55;32.30;90.60
8611;DHT22;4343;53.648;10.098;2022-08-16T13:57:21;32.50;89.60
8611;DHT22;4343;53.648;10.098;2022-08-16T13:59:47;32.60;88.30
8611;DHT22;4343;53.648;10.098;2022-08-16T14:02:12;32.80;87.70
8611;DHT22;4343;53.648;10.098;2022-08-16T14:04:40;32.90;88.20
8611;DHT22;4343;53.648;10.098;2022-08-16T14:07:09;32.90;87.80
8611;DHT22;4343;53.648;10.098;2022-08-16T14:09:35;33.00;86.90
8611;DHT22;4343;53.648;10.098;2022-08-16T14:12:03;33.00;84.80
8611;DHT22;4343;53.648;10.098;2022-08-16T14:14:29;32.90;86.50
8611;DHT22;4343;53.648;10.098;2022-08-16T14:16:57;32.90;86.20
8611;DHT22;4343;53.648;10.098;2022-08-16T14:19:22;32.90;84.10
8611;DHT22;4343;53.648;10.098;2022-08-16T14:21:48;32.80;82.00
8611;DHT22;4343;53.648;10.098;2022-08-16T14:24:14;32.70;81.80
8611;DHT22;4343;53.648;10.098;2022-08-16T14:26:42;32.50;82.20
8611;DHT22;4343;53.648;10.098;2022-08-16T14:29:09;32.40;82.30
8611;DHT22;4343;53.648;10.098;2022-08-16T14:31:35;32.20;82.60
8611;DHT22;4343;53.648;10.098;2022-08-16T14:34:01;32.00;83.40
8611;DHT22;4343;53.648;10.098;2022-08-16T14:36:28;31.80;84.10
8611;DHT22;4343;53.648;10.098;2022-08-16T14:38:54;31.60;84.50
8611;DHT22;4343;53.648;10.098;2022-08-16T14:41:19;31.40;85.30
8611;DHT22;4343;53.648;10.098;2022-08-16T14:43:45;31.30;85.70
8611;DHT22;4343;53.648;10.098;2022-08-16T14:46:11;31.20;85.80
8611;DHT22;4343;53.648;10.098;2022-08-16T14:48:36;31.00;85.80
8611;DHT22;4343;53.648;10.098;2022-08-16T14:51:02;30.90;85.10
8611;DHT22;4343;53.648;10.098;2022-08-16T14:53:28;30.80;85.50
8611;DHT22;4343;53.648;10.098;2022-08-16T14:55:54;30.60;85.80
8611;DHT22;4343;53.648;10.098;2022-08-16T14:58:19;30.50;85.80
8611;DHT22;4343;53.648;10.098;2022-08-16T15:00:46;30.40;86.30
8611;DHT22;4343;53.648;10.098;2022-08-16T15:03:11;30.30;87.10
8611;DHT22;4343;53.648;10.098;2022-08-16T15:05:39;30.20;87.50
8611;DHT22;4343;53.648;10.098;2022-08-16T15:08:05;30.10;88.20
8611;DHT22;4343;53.648;10.098;2022-08-16T15:10:31;30.10;88.00
8611;DHT22;4343;53.648;10.098;2022-08-16T15:12:57;30.10;88.30
8611;DHT22;4343;53.648;10.098;2022-08-16T15:15:25;30.10;87.20
8611;DHT22;4343;53.648;10.098;2022-08-16T15:17:52;30.10;86.70
8611;DHT22;4343;53.648;10.098;2022-08-16T15:20:18;30.00;86.90
8611;DHT22;4343;53.648;10.098;2022-08-16T15:22:46;30.00;88.00
8611;DHT22;4343;53.648;10.098;2022-08-16T15:25:19;30.00;87.20
8611;DHT22;4343;53.648;10.098;2022-08-16T15:27:46;29.90;87.70
8611;DHT22;4343;53.648;10.098;2022-08-16T15:30:18;29.80;87.60
8611;DHT22;4343;53.648;10.098;2022-08-16T15:32:44;29.80;88.20
8611;DHT22;4343;53.648;10.098;2022-08-16T15:35:10;29.80;88.60
8611;DHT22;4343;53.648;10.098;2022-08-16T15:37:37;29.70;88.70
8611;DHT22;4343;53.648;10.098;2022-08-16T15:40:06;29.70;88.20